Portada
METAR-TAF:

METAR-TAF

Aeroports :

Wasilla, Alaska, Estats Units d'Amèrica

latitud: 61-34-19N, longitud: 149-32-26W, altitud: 106 m

Observació

L'informe es va fer fa 16 minuts, a les 21:56 UTC
Vent 4 kt amb direcció variable
Temperatura 21°C
Humitat 60%
Pressió 1017 hPa
Visibilitat: 16.1 km
Núvols disperses a una alçada de 3400 ft

METAR: PAWS 252156Z AUTO VRB04KT 10SM SCT034 21/13 A3004 RMK AO2 SLP174 T02060128

Hora: 14:12 (22:12 UTC)


TAF: manca

Observacions i pronòstics meteorològics de més de 4000 aeroports (METAR i TAF).

Les estacions disponibles són els punts grocs i vermells al mapa.

Posi el ratolí al punt desitjat per veure el nom de l'estació.

Feu clic per veure les observacions i els pronòstics meteorològics.

Per canviar el mapa: feu clic els botons verds amb una creu de color negre per apropar; al botó verd amb un guió per allunyar la imatge; o en les fletxes verdes per a mapes adjacents.


METAR-TAF: